Time;durP1;ratioP1;P1;durP2;ratioP2;P2;SDS_P1;SDS_P2;PMS_P1;PMS_P2;Temp;Humidity;BMP_temperature;BMP_pressure;BME280_temperature;BME280_humidity;BME280_pressure;Samples;Min_cycle;Max_cycle;Signal;HPM_P1;HPM_P2
2021/04/30 00:00:31;;;;;;;7.70;6.40;;;7.10;99.90;;;;;;5059369;28;20458;-71
2021/04/30 00:03:16;;;;;;;8.60;6.10;;;7.10;99.90;;;;;;5067529;28;20510;-69
2021/04/30 00:06:02;;;;;;;7.53;5.47;;;7.30;99.90;;;;;;5066473;28;20859;-69
2021/04/30 00:08:48;;;;;;;9.60;5.70;;;7.30;99.90;;;;;;5064199;28;20508;-70
2021/04/30 00:11:33;;;;;;;6.33;5.67;;;7.20;99.90;;;;;;5063481;28;20824;-70
2021/04/30 00:14:18;;;;;;;8.47;5.40;;;7.00;99.90;;;;;;5067477;28;20477;-70
2021/04/30 00:17:04;;;;;;;7.50;5.87;;;7.00;99.90;;;;;;5062997;28;21093;-70
2021/04/30 00:19:49;;;;;;;7.83;6.43;;;7.20;99.90;;;;;;5063588;28;20482;-70
2021/04/30 00:22:34;;;;;;;8.10;5.90;;;7.20;99.90;;;;;;5063370;28;20440;-70
2021/04/30 00:25:20;;;;;;;7.87;6.30;;;7.10;99.90;;;;;;5068430;28;20525;-69
2021/04/30 00:28:05;;;;;;;9.13;6.37;;;6.80;99.90;;;;;;5069693;28;21009;-70
2021/04/30 00:30:51;;;;;;;7.80;6.43;;;6.60;99.90;;;;;;5070072;28;20457;-71
2021/04/30 00:33:36;;;;;;;8.30;6.30;;;6.30;99.90;;;;;;5062257;28;20911;-68
2021/04/30 00:36:21;;;;;;;8.77;6.47;;;6.20;99.90;;;;;;5065360;28;20466;-70
2021/04/30 00:39:07;;;;;;;7.60;5.93;;;6.20;99.90;;;;;;5068303;28;20513;-70
2021/04/30 00:41:53;;;;;;;8.57;6.13;;;6.30;99.90;;;;;;5068297;28;20481;-70
2021/04/30 00:44:39;;;;;;;9.27;6.20;;;6.50;99.90;;;;;;5068698;28;20509;-70
2021/04/30 00:47:26;;;;;;;17.10;6.97;;;6.70;99.90;;;;;;5071412;28;20487;-69
2021/04/30 00:50:12;;;;;;;7.53;5.40;;;6.90;99.90;;;;;;5060149;28;20438;-70
2021/04/30 00:52:57;;;;;;;8.30;5.83;;;7.00;99.90;;;;;;5069929;28;20437;-70
2021/04/30 00:55:43;;;;;;;7.23;5.30;;;6.90;99.90;;;;;;5061975;28;20999;-70
2021/04/30 00:58:28;;;;;;;10.93;6.20;;;6.70;99.90;;;;;;5055738;28;20469;-70
2021/04/30 01:01:14;;;;;;;7.87;6.40;;;6.60;99.90;;;;;;5064483;28;20473;-70
2021/04/30 01:04:00;;;;;;;7.00;5.90;;;6.30;99.90;;;;;;5061595;28;20898;-70
2021/04/30 01:06:45;;;;;;;7.20;5.57;;;6.00;99.90;;;;;;5062812;28;20472;-70
2021/04/30 01:09:30;;;;;;;9.97;6.67;;;5.90;99.90;;;;;;5060903;28;20424;-70
2021/04/30 01:12:15;;;;;;;9.63;7.37;;;5.80;99.90;;;;;;5063329;28;20494;-70
2021/04/30 01:15:01;;;;;;;13.50;6.03;;;5.80;99.90;;;;;;5060177;28;20596;-69
2021/04/30 01:17:47;;;;;;;8.03;6.40;;;5.70;99.90;;;;;;5061807;28;20504;-71
2021/04/30 01:20:32;;;;;;;6.63;5.83;;;5.80;99.90;;;;;;5055063;28;20493;-71
2021/04/30 01:23:19;;;;;;;8.73;6.60;;;5.80;99.90;;;;;;5063069;28;20462;-70
2021/04/30 01:26:04;;;;;;;8.93;6.40;;;6.00;99.90;;;;;;5062812;28;20498;-70
2021/04/30 01:28:49;;;;;;;7.70;6.43;;;6.30;99.90;;;;;;5062485;28;20450;-70
2021/04/30 01:31:35;;;;;;;9.03;6.23;;;6.50;99.90;;;;;;5066325;28;20455;-70
2021/04/30 01:34:20;;;;;;;7.27;6.07;;;6.30;99.90;;;;;;5060741;28;20462;-69
2021/04/30 01:37:05;;;;;;;8.13;6.30;;;6.10;99.90;;;;;;5065956;28;20844;-71
2021/04/30 01:39:51;;;;;;;22.73;6.00;;;5.80;99.90;;;;;;5064458;28;20991;-70
2021/04/30 01:42:36;;;;;;;9.53;6.80;;;5.90;99.90;;;;;;5065736;28;20552;-69
2021/04/30 01:45:21;;;;;;;8.47;6.83;;;5.90;99.90;;;;;;5066245;28;20913;-70
2021/04/30 01:48:11;;;;;;;9.77;6.20;;;5.90;99.90;;;;;;5065850;28;20454;-69
2021/04/30 01:50:58;;;;;;;8.47;6.37;;;5.80;99.90;;;;;;5063869;28;21002;-70
2021/04/30 01:53:44;;;;;;;7.53;5.83;;;5.80;99.90;;;;;;5063156;28;20461;-70
2021/04/30 01:56:30;;;;;;;8.40;6.50;;;5.90;99.90;;;;;;5067400;28;20480;-70
2021/04/30 01:59:15;;;;;;;10.30;7.53;;;6.00;99.90;;;;;;5068023;28;20940;-70
2021/04/30 02:02:00;;;;;;;8.20;6.63;;;5.80;99.90;;;;;;5063043;28;20462;-70
2021/04/30 02:04:45;;;;;;;10.60;6.10;;;5.80;99.90;;;;;;5059590;28;20474;-69
2021/04/30 02:07:30;;;;;;;7.10;6.07;;;6.00;99.90;;;;;;5063374;28;20461;-71
2021/04/30 02:10:18;;;;;;;7.73;6.00;;;6.10;99.90;;;;;;5066490;28;20480;-69
2021/04/30 02:13:05;;;;;;;6.80;5.80;;;6.20;99.90;;;;;;5063120;28;20830;-69
2021/04/30 02:15:54;;;;;;;8.90;7.60;;;6.20;99.90;;;;;;5063283;28;20972;-70
2021/04/30 02:18:39;;;;;;;8.48;6.20;;;5.90;99.90;;;;;;5071234;28;20450;-69
2021/04/30 02:21:24;;;;;;;7.93;6.23;;;5.90;99.90;;;;;;5067232;28;20278;-70
2021/04/30 02:24:10;;;;;;;10.40;7.43;;;5.60;99.90;;;;;;5066070;28;20463;-70
2021/04/30 02:26:55;;;;;;;10.00;7.17;;;5.50;99.90;;;;;;5066633;28;20462;-70
2021/04/30 02:29:41;;;;;;;9.80;8.37;;;5.30;99.90;;;;;;5065509;28;20439;-70
2021/04/30 02:32:27;;;;;;;9.70;7.07;;;5.20;99.90;;;;;;5062423;28;20440;-70
2021/04/30 02:35:17;;;;;;;8.83;7.17;;;5.20;99.90;;;;;;5065626;28;20940;-69
2021/04/30 02:38:03;;;;;;;9.53;7.23;;;5.10;99.90;;;;;;5062330;28;20526;-70
2021/04/30 02:40:51;;;;;;;10.30;7.80;;;5.10;99.90;;;;;;5067166;28;21055;-70
2021/04/30 02:43:36;;;;;;;9.60;7.50;;;4.90;99.90;;;;;;5062854;28;20940;-70
2021/04/30 02:46:24;;;;;;;12.10;8.50;;;4.90;99.90;;;;;;5064881;28;20914;-70
2021/04/30 02:49:14;;;;;;;9.63;6.90;;;5.10;99.90;;;;;;5066145;28;21066;-70
2021/04/30 02:51:59;;;;;;;8.43;7.00;;;5.30;99.90;;;;;;5069704;28;20443;-70
2021/04/30 02:54:44;;;;;;;8.73;6.70;;;5.50;99.90;;;;;;5064021;28;20458;-70
2021/04/30 02:57:32;;;;;;;11.17;7.67;;;5.60;99.90;;;;;;5064859;28;20460;-69
2021/04/30 03:00:18;;;;;;;9.77;7.80;;;5.50;99.90;;;;;;5064956;28;20465;-70
2021/04/30 03:03:04;;;;;;;9.40;7.43;;;5.50;99.90;;;;;;5065648;28;20433;-70
2021/04/30 03:05:50;;;;;;;11.20;7.40;;;5.50;99.90;;;;;;5064933;28;20585;-70
2021/04/30 03:08:35;;;;;;;8.97;8.00;;;5.50;99.90;;;;;;5063278;28;20459;-70
2021/04/30 03:11:21;;;;;;;11.20;7.70;;;5.30;99.90;;;;;;5066353;28;20444;-70
2021/04/30 03:14:06;;;;;;;11.97;8.57;;;5.20;99.90;;;;;;5057826;28;20506;-70
2021/04/30 03:16:51;;;;;;;11.25;8.00;;;5.00;99.90;;;;;;5066581;28;20454;-69
2021/04/30 03:19:36;;;;;;;10.33;7.27;;;4.70;99.90;;;;;;5061234;28;20543;-70
2021/04/30 03:22:22;;;;;;;10.48;6.97;;;4.60;99.90;;;;;;5064653;28;21024;-69
2021/04/30 03:25:08;;;;;;;9.23;8.05;;;4.60;99.90;;;;;;5063021;28;20224;-69
2021/04/30 03:27:53;;;;;;;10.27;8.70;;;4.50;99.90;;;;;;5065221;28;20690;-70
2021/04/30 03:30:39;;;;;;;13.13;9.03;;;4.40;99.90;;;;;;5061763;28;20866;-69
2021/04/30 03:33:24;;;;;;;13.17;8.80;;;4.20;99.90;;;;;;5062505;28;20454;-69
2021/04/30 03:36:10;;;;;;;11.05;9.38;;;4.10;99.90;;;;;;5065542;28;20470;-70
2021/04/30 03:38:55;;;;;;;15.25;10.07;;;4.00;99.90;;;;;;5060439;28;20287;-70
2021/04/30 03:41:40;;;;;;;10.57;8.57;;;4.20;99.90;;;;;;5066701;28;20336;-70
2021/04/30 03:44:25;;;;;;;12.50;8.85;;;4.50;99.90;;;;;;5054599;28;20327;-70
2021/04/30 03:47:11;;;;;;;9.83;8.23;;;4.60;99.90;;;;;;5066591;28;20266;-70
2021/04/30 03:49:57;;;;;;;11.67;9.27;;;4.60;99.90;;;;;;5060443;28;20461;-70
2021/04/30 03:52:43;;;;;;;11.00;8.27;;;4.60;99.90;;;;;;5065035;28;20550;-70
2021/04/30 03:55:28;;;;;;;13.10;8.53;;;4.50;99.90;;;;;;5062987;28;20205;-71
2021/04/30 03:58:13;;;;;;;11.15;8.90;;;4.60;99.90;;;;;;5064639;28;20877;-69
2021/04/30 04:00:58;;;;;;;11.27;7.90;;;4.80;99.90;;;;;;5062826;28;20260;-69
2021/04/30 04:03:43;;;;;;;15.03;8.93;;;4.90;99.90;;;;;;5066820;28;20497;-70
2021/04/30 04:06:28;;;;;;;10.57;8.30;;;4.90;99.90;;;;;;5065874;28;20476;-70
2021/04/30 04:09:14;;;;;;;10.17;8.57;;;4.80;99.90;;;;;;5063675;28;20756;-70
2021/04/30 04:12:00;;;;;;;11.33;8.57;;;4.80;99.90;;;;;;5061013;28;20504;-69
2021/04/30 04:14:45;;;;;;;10.68;7.53;;;4.80;99.90;;;;;;5064584;28;20454;-70
2021/04/30 04:17:30;;;;;;;11.93;8.63;;;4.90;99.90;;;;;;5062050;28;20228;-69
2021/04/30 04:20:15;;;;;;;10.73;8.40;;;4.60;99.90;;;;;;5065012;28;20248;-70
2021/04/30 04:23:01;;;;;;;10.05;8.43;;;4.30;99.90;;;;;;5068337;28;20476;-69
2021/04/30 04:25:47;;;;;;;9.60;8.03;;;4.40;99.90;;;;;;5066205;28;20227;-69
2021/04/30 04:28:32;;;;;;;9.77;8.35;;;4.60;99.90;;;;;;5067586;28;20886;-68
2021/04/30 04:31:17;;;;;;;9.60;8.20;;;4.80;99.90;;;;;;5065446;28;20243;-68
2021/04/30 04:34:03;;;;;;;10.47;8.00;;;4.90;99.90;;;;;;5061110;28;20451;-69
2021/04/30 04:36:48;;;;;;;9.27;8.00;;;4.70;99.90;;;;;;5064724;28;20620;-68
2021/04/30 04:39:33;;;;;;;11.52;9.90;;;4.50;99.90;;;;;;5065540;28;20442;-70
2021/04/30 04:42:19;;;;;;;11.40;9.27;;;4.20;99.90;;;;;;5064620;28;20259;-70
2021/04/30 04:45:06;;;;;;;11.33;8.47;;;4.50;99.90;;;;;;5066189;28;20508;-69
2021/04/30 04:47:51;;;;;;;10.27;8.73;;;4.60;99.90;;;;;;5072103;28;20550;-70
2021/04/30 04:50:36;;;;;;;11.97;9.07;;;4.50;99.90;;;;;;5066363;28;20541;-70
2021/04/30 04:53:21;;;;;;;11.30;9.30;;;4.60;99.90;;;;;;5068263;28;20450;-70
2021/04/30 04:56:06;;;;;;;13.60;9.43;;;4.80;99.90;;;;;;5064502;28;20462;-70
2021/04/30 04:58:53;;;;;;;10.80;8.70;;;4.90;99.90;;;;;;5063212;28;20442;-70
2021/04/30 05:01:38;;;;;;;15.43;9.27;;;4.90;99.90;;;;;;5064373;28;20474;-70
2021/04/30 05:04:23;;;;;;;11.50;9.20;;;4.80;99.90;;;;;;5067709;28;21011;-72
2021/04/30 05:07:08;;;;;;;11.60;9.40;;;4.90;99.90;;;;;;5065936;28;21253;-70
2021/04/30 05:09:54;;;;;;;17.43;10.13;;;5.10;99.90;;;;;;5061723;28;20482;-70
2021/04/30 05:12:39;;;;;;;13.07;9.50;;;5.20;99.90;;;;;;5065033;28;20559;-71
2021/04/30 05:15:26;;;;;;;12.85;9.65;;;5.10;99.90;;;;;;5063391;28;20553;-69
2021/04/30 05:18:11;;;;;;;13.80;10.50;;;5.30;99.90;;;;;;5063752;28;20670;-70
2021/04/30 05:20:56;;;;;;;16.07;10.90;;;5.40;99.90;;;;;;5063430;28;20231;-69
2021/04/30 05:23:42;;;;;;;14.13;11.00;;;5.30;99.90;;;;;;5061433;28;20409;-71
2021/04/30 05:26:29;;;;;;;14.40;10.57;;;5.30;99.90;;;;;;5061864;28;20858;-70
2021/04/30 05:29:15;;;;;;;13.47;10.20;;;5.40;99.90;;;;;;5064284;28;20421;-70
2021/04/30 05:32:01;;;;;;;13.00;9.97;;;5.40;99.90;;;;;;5065109;28;20413;-70
2021/04/30 05:34:46;;;;;;;11.90;10.43;;;5.70;99.90;;;;;;5061710;28;21006;-71
2021/04/30 05:37:31;;;;;;;13.43;11.40;;;5.80;99.90;;;;;;5062351;28;21326;-70
2021/04/30 05:40:16;;;;;;;11.00;9.70;;;5.90;99.90;;;;;;5061947;28;20524;-70
2021/04/30 05:43:01;;;;;;;16.67;10.37;;;6.00;99.90;;;;;;5060853;28;20442;-70
2021/04/30 05:45:46;;;;;;;14.20;10.33;;;6.20;99.90;;;;;;5053505;28;20480;-71
2021/04/30 05:48:32;;;;;;;10.73;9.57;;;6.30;99.90;;;;;;5056137;28;20421;-70
2021/04/30 05:51:18;;;;;;;12.37;10.83;;;6.40;99.90;;;;;;5063647;28;20426;-69
2021/04/30 05:54:03;;;;;;;19.57;12.10;;;6.50;99.90;;;;;;5063078;28;20978;-70
2021/04/30 05:56:48;;;;;;;13.90;10.97;;;6.60;99.90;;;;;;5060237;28;20458;-70
2021/04/30 05:59:33;;;;;;;15.60;10.37;;;6.70;99.90;;;;;;5065504;28;20963;-71
2021/04/30 06:02:18;;;;;;;15.17;11.07;;;6.80;99.90;;;;;;5059865;28;20449;-71
2021/04/30 06:05:05;;;;;;;17.20;10.40;;;6.90;99.90;;;;;;5060570;28;20786;-70
2021/04/30 06:07:50;;;;;;;20.73;10.50;;;6.90;99.90;;;;;;5060695;28;20446;-70
2021/04/30 06:10:36;;;;;;;16.60;10.37;;;7.00;99.90;;;;;;5064030;28;21182;-70
2021/04/30 06:13:21;;;;;;;13.60;10.90;;;7.00;99.90;;;;;;5064375;28;20443;-69
2021/04/30 06:16:07;;;;;;;14.27;10.93;;;7.10;99.90;;;;;;5067566;28;20474;-70
2021/04/30 06:18:52;;;;;;;18.77;12.70;;;7.10;99.90;;;;;;5063607;28;20432;-69
2021/04/30 06:21:38;;;;;;;13.40;10.03;;;7.00;99.90;;;;;;5065331;28;20487;-69
2021/04/30 06:24:24;;;;;;;11.87;10.37;;;7.00;99.90;;;;;;5067359;28;20482;-69
2021/04/30 06:27:09;;;;;;;16.30;11.43;;;7.00;99.90;;;;;;5068340;28;20470;-70
2021/04/30 06:29:54;;;;;;;17.23;10.90;;;7.20;99.90;;;;;;5065946;28;20475;-70
2021/04/30 06:32:42;;;;;;;15.83;10.70;;;7.30;99.90;;;;;;5062607;28;20883;-71
2021/04/30 06:35:28;;;;;;;14.90;11.70;;;7.30;99.90;;;;;;5062621;28;20504;-69
2021/04/30 06:38:15;;;;;;;13.77;10.97;;;7.30;99.90;;;;;;5063579;28;20825;-70
2021/04/30 06:41:00;;;;;;;13.87;11.43;;;7.30;99.90;;;;;;5069938;28;20516;-70
2021/04/30 06:43:45;;;;;;;14.20;11.60;;;7.30;99.90;;;;;;5061853;28;20494;-70
2021/04/30 06:46:30;;;;;;;15.37;11.67;;;7.40;99.90;;;;;;5064788;28;20463;-70
2021/04/30 06:49:15;;;;;;;14.10;10.70;;;7.50;99.90;;;;;;5063219;28;20433;-70
2021/04/30 06:52:00;;;;;;;12.27;10.83;;;7.70;99.90;;;;;;5063095;28;20463;-69
2021/04/30 06:54:46;;;;;;;14.30;10.90;;;7.90;99.90;;;;;;5072360;28;20422;-70
2021/04/30 06:57:31;;;;;;;13.97;10.20;;;8.10;99.90;;;;;;5063155;28;20985;-70
2021/04/30 07:00:17;;;;;;;16.80;12.83;;;8.30;99.90;;;;;;5062915;28;20946;-70
2021/04/30 07:03:02;;;;;;;16.80;13.07;;;8.50;99.90;;;;;;5067113;28;20450;-70
2021/04/30 07:05:48;;;;;;;16.57;12.20;;;8.60;99.90;;;;;;5062525;28;20462;-70
2021/04/30 07:08:33;;;;;;;13.70;11.03;;;8.80;99.90;;;;;;5060790;28;20555;-70
2021/04/30 07:11:19;;;;;;;17.70;12.10;;;8.90;99.90;;;;;;5066983;28;20497;-70
2021/04/30 07:14:05;;;;;;;17.20;12.70;;;9.00;99.90;;;;;;5061313;28;20474;-70
2021/04/30 07:16:52;;;;;;;17.20;13.70;;;9.10;99.90;;;;;;5070182;28;21260;-70
2021/04/30 07:19:37;;;;;;;17.20;13.67;;;9.20;99.90;;;;;;5066355;28;20463;-70
2021/04/30 07:22:23;;;;;;;22.50;15.23;;;9.30;99.90;;;;;;5064065;28;20473;-70
2021/04/30 07:25:09;;;;;;;17.27;13.80;;;9.50;99.90;;;;;;5067595;28;20516;-69
2021/04/30 07:27:56;;;;;;;17.30;13.60;;;9.50;99.90;;;;;;5064386;28;20940;-71
2021/04/30 07:30:41;;;;;;;18.30;13.40;;;9.60;99.90;;;;;;5063258;28;20447;-70
2021/04/30 07:33:26;;;;;;;21.20;13.40;;;9.60;99.90;;;;;;5062851;28;20592;-70
2021/04/30 07:36:11;;;;;;;20.60;13.87;;;9.60;99.90;;;;;;5063189;28;20486;-70
2021/04/30 07:38:57;;;;;;;16.70;12.70;;;9.70;99.90;;;;;;5062093;28;20424;-69
2021/04/30 07:41:42;;;;;;;21.03;14.33;;;9.70;99.90;;;;;;5059473;28;20474;-70
2021/04/30 07:44:28;;;;;;;22.40;14.77;;;9.70;99.90;;;;;;5065595;28;22054;-71
2021/04/30 07:47:14;;;;;;;18.70;15.10;;;9.70;99.90;;;;;;5061742;28;20462;-70
2021/04/30 07:49:59;;;;;;;17.27;14.50;;;9.80;99.90;;;;;;5064606;28;20450;-71
2021/04/30 07:52:44;;;;;;;16.93;13.90;;;9.90;99.90;;;;;;5062188;28;21368;-70
2021/04/30 07:55:30;;;;;;;20.63;14.97;;;10.00;99.90;;;;;;5060413;28;20451;-70
2021/04/30 07:58:15;;;;;;;24.13;15.20;;;10.00;99.90;;;;;;5064131;28;20860;-70
2021/04/30 08:01:00;;;;;;;20.63;15.00;;;10.10;99.90;;;;;;5062174;28;20450;-70
2021/04/30 08:03:46;;;;;;;16.73;13.50;;;10.20;99.90;;;;;;5063592;28;20416;-71
2021/04/30 08:06:31;;;;;;;18.07;14.27;;;10.20;99.90;;;;;;5058596;28;20475;-70
2021/04/30 08:09:16;;;;;;;17.53;13.00;;;10.20;99.90;;;;;;5064104;28;20532;-71
2021/04/30 08:12:01;;;;;;;17.03;11.53;;;10.40;99.90;;;;;;5060748;28;20426;-70
2021/04/30 08:14:46;;;;;;;16.70;11.73;;;10.40;99.90;;;;;;5060697;28;20438;-70
2021/04/30 08:17:32;;;;;;;13.70;11.60;;;10.50;97.00;;;;;;5061215;28;20522;-70
2021/04/30 08:20:17;;;;;;;15.00;11.70;;;10.50;96.20;;;;;;5065776;28;20796;-70
2021/04/30 08:23:04;;;;;;;18.33;12.87;;;10.60;94.90;;;;;;5064055;28;20458;-70
2021/04/30 08:25:49;;;;;;;16.43;12.47;;;10.70;93.90;;;;;;5063597;28;20477;-69
2021/04/30 08:28:34;;;;;;;16.13;11.77;;;10.80;93.30;;;;;;5062896;28;20861;-70
2021/04/30 08:31:21;;;;;;;15.80;11.43;;;10.90;90.70;;;;;;5071540;28;20424;-70
2021/04/30 08:34:07;;;;;;;19.33;11.43;;;11.00;90.80;;;;;;5058543;28;20517;-71
2021/04/30 08:36:52;;;;;;;19.90;11.57;;;11.00;90.20;;;;;;5057543;28;20478;-71
2021/04/30 08:39:38;;;;;;;14.80;11.50;;;11.10;88.60;;;;;;5060944;28;20501;-71
2021/04/30 08:42:24;;;;;;;13.87;11.43;;;11.10;86.40;;;;;;5065667;28;20991;-71
2021/04/30 08:45:13;;;;;;;13.93;10.77;;;11.10;81.00;;;;;;5064704;28;20417;-70
2021/04/30 08:47:58;;;;;;;17.00;11.23;;;11.10;75.40;;;;;;5062653;28;20442;-69
2021/04/30 08:50:46;;;;;;;18.13;12.03;;;11.10;80.50;;;;;;5066083;28;20434;-70
2021/04/30 08:53:31;;;;;;;17.03;11.33;;;11.10;85.20;;;;;;5058479;28;20442;-70
2021/04/30 08:56:17;;;;;;;16.80;11.20;;;11.20;84.10;;;;;;5062611;28;20461;-70
2021/04/30 08:59:06;;;;;;;14.37;11.60;;;11.30;85.80;;;;;;5068487;28;20521;-69
2021/04/30 09:01:51;;;;;;;11.80;10.53;;;11.40;81.40;;;;;;5059459;28;20474;-70
2021/04/30 09:04:36;;;;;;;16.33;11.20;;;11.40;82.80;;;;;;5065033;28;20440;-70
2021/04/30 09:07:25;;;;;;;14.40;11.10;;;11.50;85.90;;;;;;5059845;28;20838;-70
2021/04/30 09:10:13;;;;;;;16.60;11.37;;;11.50;82.50;;;;;;5063855;28;20456;-69
2021/04/30 09:13:04;;;;;;;13.30;11.10;;;11.70;81.70;;;;;;5060839;28;20789;-70
2021/04/30 09:16:04;;;;;;;17.30;11.23;;;11.60;75.80;;;;;;5065811;28;20805;-70
2021/04/30 09:18:50;;;;;;;15.80;11.37;;;11.60;74.70;;;;;;5065607;28;20475;-69
2021/04/30 09:21:35;;;;;;;15.43;11.17;;;11.40;74.20;;;;;;5070301;28;20541;-71
2021/04/30 09:24:24;;;;;;;15.43;11.10;;;11.50;75.70;;;;;;5067012;28;20990;-71
2021/04/30 09:27:10;;;;;;;19.50;13.20;;;11.50;81.50;;;;;;5057189;28;20523;-69
2021/04/30 09:30:10;;;;;;;14.20;12.30;;;11.40;82.00;;;;;;5061215;28;20442;-70
2021/04/30 09:33:09;;;;;;;15.97;12.23;;;11.30;81.80;;;;;;5061034;28;20498;-70
2021/04/30 09:35:56;;;;;;;17.90;14.10;;;11.30;85.70;;;;;;5064644;28;20453;-70
2021/04/30 09:38:42;;;;;;;18.43;14.33;;;11.20;87.50;;;;;;5060966;28;20990;-71
2021/04/30 09:41:28;;;;;;;18.67;14.50;;;10.80;91.10;;;;;;5061477;28;20467;-70
2021/04/30 09:44:13;;;;;;;19.60;13.50;;;10.50;91.50;;;;;;5063362;28;20466;-69
2021/04/30 09:47:15;;;;;;;21.33;14.33;;;10.30;95.60;;;;;;5060228;28;20473;-70
2021/04/30 09:50:01;;;;;;;17.60;13.10;;;10.30;97.10;;;;;;5066880;28;20553;-70
2021/04/30 09:52:53;;;;;;;17.33;12.80;;;10.40;97.20;;;;;;5061560;28;21157;-71
2021/04/30 09:55:44;;;;;;;15.57;13.03;;;10.60;96.40;;;;;;5067152;28;20445;-70
2021/04/30 09:58:44;;;;;;;33.20;15.20;;;10.80;96.90;;;;;;5066350;28;21030;-71
2021/04/30 10:01:30;;;;;;;19.83;13.80;;;11.00;96.40;;;;;;5064493;28;21140;-70
2021/04/30 10:04:23;;;;;;;19.00;14.20;;;11.00;95.50;;;;;;5068103;28;21186;-71
2021/04/30 10:07:08;;;;;;;25.30;15.70;;;11.20;95.50;;;;;;5073072;28;20997;-71
2021/04/30 10:10:05;;;;;;;17.97;13.80;;;11.40;94.60;;;;;;5070701;28;20464;-70
2021/04/30 10:12:54;;;;;;;18.30;12.70;;;11.50;92.90;;;;;;5058816;28;20527;-70
2021/04/30 10:15:40;;;;;;;20.20;14.40;;;11.60;92.80;;;;;;5065814;28;20463;-69
2021/04/30 10:18:26;;;;;;;19.10;15.33;;;11.50;91.20;;;;;;5065113;28;20454;-69
2021/04/30 10:21:12;;;;;;;20.30;15.20;;;11.40;91.00;;;;;;5068529;28;20512;-70
2021/04/30 10:23:58;;;;;;;20.23;15.00;;;11.40;92.80;;;;;;5067640;28;20472;-69
2021/04/30 10:26:43;;;;;;;18.00;14.57;;;11.40;92.30;;;;;;5074426;28;20505;-69
2021/04/30 10:29:31;;;;;;;17.40;12.60;;;11.40;92.00;;;;;;5066306;28;20783;-70
2021/04/30 10:32:21;;;;;;;24.03;15.70;;;11.40;91.30;;;;;;5061357;28;20422;-69
2021/04/30 10:35:09;;;;;;;16.73;13.57;;;11.20;90.60;;;;;;5060529;28;20470;-70
2021/04/30 10:37:58;;;;;;;19.63;13.50;;;11.10;90.70;;;;;;5061052;28;20434;-69
2021/04/30 10:40:58;;;;;;;20.37;12.37;;;11.20;92.00;;;;;;5061469;28;20460;-71
2021/04/30 10:43:48;;;;;;;19.93;13.13;;;11.30;92.30;;;;;;5054039;28;20455;-71
2021/04/30 10:46:33;;;;;;;13.10;10.73;;;11.40;90.80;;;;;;5061481;28;20442;-70
2021/04/30 10:49:21;;;;;;;13.83;12.07;;;11.60;90.30;;;;;;5063445;28;21211;-71
2021/04/30 10:52:18;;;;;;;17.00;12.20;;;11.70;85.10;;;;;;5070885;28;20535;-71
2021/04/30 10:55:05;;;;;;;25.23;12.03;;;11.80;79.30;;;;;;5062098;28;20490;-70
2021/04/30 10:57:56;;;;;;;17.93;11.53;;;11.70;75.30;;;;;;5063530;28;20417;-71
2021/04/30 11:00:44;;;;;;;15.77;11.83;;;11.60;77.10;;;;;;5059664;28;20830;-69
2021/04/30 11:03:30;;;;;;;15.10;12.47;;;11.70;77.30;;;;;;5059531;28;20464;-70
2021/04/30 11:06:16;;;;;;;19.57;12.10;;;11.70;80.30;;;;;;5063697;28;20473;-71
2021/04/30 11:09:05;;;;;;;13.47;11.20;;;11.70;80.40;;;;;;5067180;28;20442;-70
2021/04/30 11:11:49;;;;;;;14.83;11.20;;;11.60;72.50;;;;;;5068790;28;20439;-70
2021/04/30 11:14:38;;;;;;;15.30;10.03;;;11.60;75.30;;;;;;5065074;28;20440;-71
2021/04/30 11:17:53;;;;;;;16.30;11.10;;;11.70;75.70;;;;;;5060955;28;20886;-71
2021/04/30 11:20:41;;;;;;;16.10;12.63;;;11.90;77.60;;;;;;5057129;28;20871;-71
2021/04/30 11:23:29;;;;;;;13.47;11.90;;;11.90;76.20;;;;;;5066783;28;20513;-71
2021/04/30 11:26:15;;;;;;;14.80;12.13;;;12.00;75.90;;;;;;5070807;28;21174;-71
2021/04/30 11:29:10;;;;;;;16.13;11.50;;;12.00;74.00;;;;;;5069373;28;20474;-70
2021/04/30 11:32:20;;;;;;;12.27;10.97;;;12.10;74.20;;;;;;5057327;28;20903;-70
2021/04/30 11:35:06;;;;;;;17.03;11.30;;;12.20;75.40;;;;;;5063781;28;20950;-69
2021/04/30 11:37:52;;;;;;;13.57;10.27;;;12.30;73.00;;;;;;5068986;28;20487;-70
2021/04/30 11:40:38;;;;;;;13.70;10.37;;;12.40;70.20;;;;;;5061234;28;20478;-70
2021/04/30 11:43:23;;;;;;;14.37;11.07;;;12.40;68.80;;;;;;5063430;28;20491;-70
2021/04/30 11:46:09;;;;;;;16.10;11.30;;;12.50;71.40;;;;;;5068916;28;20436;-70
2021/04/30 11:48:54;;;;;;;15.67;11.73;;;12.50;68.90;;;;;;5054951;28;20939;-71
2021/04/30 11:51:43;;;;;;;16.50;11.77;;;12.30;66.20;;;;;;5058463;28;20443;-69
2021/04/30 11:54:31;;;;;;;18.60;11.50;;;12.30;66.90;;;;;;5059671;28;21045;-70
2021/04/30 11:57:16;;;;;;;17.07;10.60;;;12.00;65.50;;;;;;5064188;28;20482;-70
2021/04/30 12:00:03;;;;;;;16.00;11.50;;;11.90;68.50;;;;;;5066508;28;20495;-71
2021/04/30 12:03:03;;;;;;;15.13;12.00;;;11.80;67.20;;;;;;5058726;28;21015;-70
2021/04/30 12:05:48;;;;;;;17.07;11.30;;;11.50;67.70;;;;;;5060964;28;20470;-70
2021/04/30 12:08:33;;;;;;;15.97;11.50;;;11.40;68.20;;;;;;5069472;28;20513;-70
2021/04/30 12:11:25;;;;;;;21.93;15.90;;;11.20;70.90;;;;;;5064770;28;20446;-71
2021/04/30 12:14:11;;;;;;;24.43;16.20;;;11.10;80.90;;;;;;5058392;28;20457;-71
2021/04/30 12:17:00;;;;;;;23.20;15.03;;;11.00;84.20;;;;;;5052779;28;20898;-69
2021/04/30 12:19:57;;;;;;;22.37;17.30;;;10.90;90.10;;;;;;5057109;28;20447;-70
2021/04/30 12:22:49;;;;;;;42.53;17.53;;;10.70;92.90;;;;;;5063542;28;20470;-70
2021/04/30 12:25:37;;;;;;;25.13;16.93;;;10.70;94.50;;;;;;5063485;28;20572;-70
2021/04/30 12:28:25;;;;;;;26.20;17.70;;;10.70;95.50;;;;;;5062962;28;20991;-70
2021/04/30 12:31:12;;;;;;;21.10;16.50;;;10.70;95.50;;;;;;5063436;28;20437;-70
2021/04/30 12:33:57;;;;;;;22.37;16.90;;;10.90;95.90;;;;;;5057818;28;20542;-69
2021/04/30 12:36:44;;;;;;;27.20;18.50;;;10.80;94.80;;;;;;5060110;28;20457;-70
2021/04/30 12:39:30;;;;;;;19.43;15.77;;;10.80;96.10;;;;;;5057552;28;20947;-70
2021/04/30 12:42:16;;;;;;;24.20;17.10;;;10.70;96.50;;;;;;5060880;28;20483;-70
2021/04/30 12:45:01;;;;;;;27.77;16.47;;;10.80;99.90;;;;;;5060286;28;20440;-70
2021/04/30 12:47:50;;;;;;;18.50;15.57;;;11.00;99.90;;;;;;5061590;28;20433;-71
2021/04/30 12:50:35;;;;;;;21.67;15.40;;;11.00;98.90;;;;;;5058755;28;20453;-69
2021/04/30 12:53:20;;;;;;;16.70;14.03;;;11.20;99.90;;;;;;5059147;28;20956;-70
2021/04/30 12:56:07;;;;;;;16.40;11.03;;;11.30;99.90;;;;;;5061337;28;20444;-70
2021/04/30 12:59:06;;;;;;;16.07;12.70;;;11.40;96.30;;;;;;5056179;28;20454;-69
2021/04/30 13:01:52;;;;;;;15.50;11.80;;;11.60;96.20;;;;;;5062753;28;20441;-71
2021/04/30 13:04:43;;;;;;;14.47;10.70;;;11.70;97.40;;;;;;5061778;28;20492;-70
2021/04/30 13:07:29;;;;;;;15.83;10.60;;;11.80;95.90;;;;;;5062888;28;20854;-69
2021/04/30 13:10:22;;;;;;;14.50;10.50;;;11.70;86.80;;;;;;5063887;28;20535;-70
2021/04/30 13:13:08;;;;;;;19.53;13.40;;;11.50;84.10;;;;;;5063956;28;20652;-70
2021/04/30 13:16:04;;;;;;;21.60;12.80;;;11.20;89.40;;;;;;5067936;28;20459;-71
2021/04/30 13:19:04;;;;;;;17.73;13.37;;;11.20;91.40;;;;;;5060642;28;20503;-70
2021/04/30 13:21:52;;;;;;;16.33;13.50;;;11.30;92.10;;;;;;5063325;28;20440;-70
2021/04/30 13:24:40;;;;;;;16.27;11.70;;;11.30;92.60;;;;;;5066047;28;20450;-71
2021/04/30 13:27:25;;;;;;;15.47;11.73;;;11.40;94.20;;;;;;5066082;28;20549;-70
2021/04/30 13:30:11;;;;;;;18.53;12.90;;;11.50;95.30;;;;;;5061745;28;20413;-71
2021/04/30 13:33:12;;;;;;;18.37;11.60;;;11.60;92.60;;;;;;5061594;28;20450;-70
2021/04/30 13:36:03;;;;;;;16.87;11.70;;;11.40;92.60;;;;;;5068974;28;20482;-71
2021/04/30 13:38:49;;;;;;;17.03;11.07;;;11.40;93.90;;;;;;5059297;28;20501;-72
2021/04/30 13:41:36;;;;;;;12.43;10.77;;;11.60;93.80;;;;;;5067956;28;20520;-71
2021/04/30 13:44:22;;;;;;;12.60;10.63;;;11.80;91.40;;;;;;5067793;28;20478;-70
2021/04/30 13:47:12;;;;;;;18.90;12.03;;;11.90;91.80;;;;;;5070984;28;20469;-70
2021/04/30 13:49:59;;;;;;;17.40;12.40;;;12.10;92.20;;;;;;5064417;28;20513;-70
2021/04/30 13:52:44;;;;;;;17.47;11.87;;;12.10;91.00;;;;;;5061583;28;20525;-71
2021/04/30 13:55:31;;;;;;;18.53;11.80;;;12.20;90.10;;;;;;5067914;28;20459;-71
2021/04/30 13:58:17;;;;;;;17.20;10.50;;;12.30;89.80;;;;;;5065986;28;20432;-69
2021/04/30 14:01:03;;;;;;;12.93;9.17;;;12.30;87.10;;;;;;5069822;28;20476;-69
2021/04/30 14:03:48;;;;;;;8.77;7.47;;;12.10;77.50;;;;;;5062261;28;20437;-69
2021/04/30 14:06:33;;;;;;;10.30;7.30;;;12.10;83.60;;;;;;5070414;28;20828;-68
2021/04/30 14:09:18;;;;;;;12.30;7.70;;;12.10;82.00;;;;;;5063838;28;20516;-69
2021/04/30 14:12:05;;;;;;;10.87;7.73;;;12.10;81.70;;;;;;5069590;28;20514;-69
2021/04/30 14:14:53;;;;;;;11.83;7.77;;;12.00;78.90;;;;;;5068315;28;20463;-70
2021/04/30 14:17:39;;;;;;;13.47;8.23;;;12.10;81.20;;;;;;5064964;28;20431;-69